Været på Ålesund Lufhavn, Vigra (ENAL)

 

Time for time, neste 48 timer:

Detaljert varsel fra yr.no - 48 timer

Vindprognose for Breisundet:

Vindvarsel

Upper Winds 3000 fot akkurat nå:

ENAL akkurat nå:

  • METAR: 090820Z 05014KT 9000 VCSH FEW015TCU BKN030 03/M00 Q0986
  • TAF: TAF AMD 090718Z 0907/0915 02015KT 9999 FEW012TCU BKN025 TEMPO 0907/0915 36022G35KT 2000 SHSNRA BKN008 SCT012CB